<?xml version="1.0" encoding="UTF-8"?><gpx xmlns="http://www.topografix.com/GPX/1/1" version="1.1" creator="iOrient"><trk><name>Трейл "Нас не догонят"</name><trkseg><trkpt lat="55.8298488" lon="48.9578574"><time>2022-05-10T07:00:11.037</time></trkpt><trkpt lat="55.8298923" lon="48.9578323"><time>2022-05-10T07:00:52.970</time></trkpt><trkpt lat="55.8299376" lon="48.9578484"><time>2022-05-10T07:01:33.043</time></trkpt><trkpt lat="55.8299998" lon="48.9578431"><time>2022-05-10T07:01:51.950</time></trkpt><trkpt lat="55.8299512" lon="48.9577869"><time>2022-05-10T07:01:57.983</time></trkpt><trkpt lat="55.8299060" lon="48.9577721"><time>2022-05-10T07:02:00.977</time></trkpt><trkpt lat="55.8298493" lon="48.9577593"><time>2022-05-10T07:02:03.020</time></trkpt><trkpt lat="55.8297922" lon="48.9577370"><time>2022-05-10T07:02:05.970</time></trkpt><trkpt lat="55.8297406" lon="48.9577095"><time>2022-05-10T07:02:09.030</time></trkpt><trkpt lat="55.8296863" lon="48.9577034"><time>2022-05-10T07:02:10.963</time></trkpt><trkpt lat="55.8296242" lon="48.9576728"><time>2022-05-10T07:02:15.040</time></trkpt><trkpt lat="55.8295757" lon="48.9576319"><time>2022-05-10T07:02:17.993</time></trkpt><trkpt lat="55.8295581" lon="48.9576140"><time>2022-05-10T07:02:18.973</time></trkpt><trkpt lat="55.8295051" lon="48.9575688"><time>2022-05-10T07:02:21.983</time></trkpt><trkpt lat="55.8294554" lon="48.9575254"><time>2022-05-10T07:02:24.980</time></trkpt><trkpt lat="55.8294009" lon="48.9574850"><time>2022-05-10T07:02:27.970</time></trkpt><trkpt lat="55.8293518" lon="48.9574332"><time>2022-05-10T07:02:30.980</time></trkpt><trkpt lat="55.8292868" lon="48.9573930"><time>2022-05-10T07:02:33.953</time></trkpt><trkpt lat="55.8292170" lon="48.9573565"><time>2022-05-10T07:02:35.987</time></trkpt><trkpt lat="55.8291461" lon="48.9573158"><time>2022-05-10T07:02:37.993</time></trkpt><trkpt lat="55.8291099" lon="48.9572997"><time>2022-05-10T07:02:39.057</time></trkpt><trkpt lat="55.8290383" lon="48.9572762"><time>2022-05-10T07:02:40.983</time></trkpt><trkpt lat="55.8289683" lon="48.9572496"><time>2022-05-10T07:02:42.990</time></trkpt><trkpt lat="55.8289104" lon="48.9572213"><time>2022-05-10T07:02:44.983</time></trkpt><trkpt lat="55.8288545" lon="48.9571992"><time>2022-05-10T07:02:46.987</time></trkpt><trkpt lat="55.8288061" lon="48.9571697"><time>2022-05-10T07:02:48.980</time></trkpt><trkpt lat="55.8287548" lon="48.9571442"><time>2022-05-10T07:02:50.977</time></trkpt><trkpt lat="55.8286985" lon="48.9571238"><time>2022-05-10T07:02:52.980</time></trkpt><trkpt lat="55.8286434" lon="48.9571050"><time>2022-05-10T07:02:54.983</time></trkpt><trkpt lat="55.8285816" lon="48.9570815"><time>2022-05-10T07:02:56.987</time></trkpt><trkpt lat="55.8285269" lon="48.9570511"><time>2022-05-10T07:02:58.987</time></trkpt><trkpt lat="55.8284754" lon="48.9570223"><time>2022-05-10T07:03:00.977</time></trkpt><trkpt lat="55.8284228" lon="48.9569937"><time>2022-05-10T07:03:02.987</time></trkpt><trkpt lat="55.8283735" lon="48.9569587"><time>2022-05-10T07:03:04.987</time></trkpt><trkpt lat="55.8283256" lon="48.9569249"><time>2022-05-10T07:03:06.977</time></trkpt><trkpt lat="55.8282788" lon="48.9568854"><time>2022-05-10T07:03:08.967</time></trkpt><trkpt lat="55.8282405" lon="48.9568307"><time>2022-05-10T07:03:11</time></trkpt><trkpt lat="55.8282230" lon="48.9568025"><time>2022-05-10T07:03:11.963</time></trkpt><trkpt lat="55.8281857" lon="48.9567468"><time>2022-05-10T07:03:14.037</time></trkpt><trkpt lat="55.8281381" lon="48.9566854"><time>2022-05-10T07:03:16.980</time></trkpt><trkpt lat="55.8280867" lon="48.9566187"><time>2022-05-10T07:03:19.960</time></trkpt><trkpt lat="55.8280408" lon="48.9565733"><time>2022-05-10T07:03:21.977</time></trkpt><trkpt lat="55.8279913" lon="48.9565315"><time>2022-05-10T07:03:23.983</time></trkpt><trkpt lat="55.8279431" lon="48.9565036"><time>2022-05-10T07:03:26.033</time></trkpt><trkpt lat="55.8278965" lon="48.9564770"><time>2022-05-10T07:03:27.980</time></trkpt><trkpt lat="55.8278512" lon="48.9564495"><time>2022-05-10T07:03:30.003</time></trkpt><trkpt lat="55.8278302" lon="48.9564399"><time>2022-05-10T07:03:30.990</time></trkpt><trkpt lat="55.8277649" lon="48.9564223"><time>2022-05-10T07:03:33.963</time></trkpt><trkpt lat="55.8277144" lon="48.9564062"><time>2022-05-10T07:03:36.967</time></trkpt><trkpt lat="55.8276482" lon="48.9563968"><time>2022-05-10T07:03:39.983</time></trkpt><trkpt lat="55.8276482" lon="48.9563968"><time>2022-05-10T07:03:40.037</time></trkpt><trkpt lat="55.8275921" lon="48.9564079"><time>2022-05-10T07:03:42.977</time></trkpt><trkpt lat="55.8275689" lon="48.9564148"><time>2022-05-10T07:03:43.967</time></trkpt><trkpt lat="55.8275203" lon="48.9564332"><time>2022-05-10T07:03:45.957</time></trkpt><trkpt lat="55.8274771" lon="48.9565017"><time>2022-05-10T07:03:48.973</time></trkpt><trkpt lat="55.8274524" lon="48.9565945"><time>2022-05-10T07:03:51.973</time></trkpt><trkpt lat="55.8274213" lon="48.9566793"><time>2022-05-10T07:03:54.973</time></trkpt><trkpt lat="55.8273998" lon="48.9567851"><time>2022-05-10T07:03:57.973</time></trkpt><trkpt lat="55.8273754" lon="48.9568894"><time>2022-05-10T07:04:00.977</time></trkpt><trkpt lat="55.8273516" lon="48.9569593"><time>2022-05-10T07:04:03.973</time></trkpt><trkpt lat="55.8273261" lon="48.9570404"><time>2022-05-10T07:04:07.973</time></trkpt><trkpt lat="55.8273019" lon="48.9571504"><time>2022-05-10T07:04:10.973</time></trkpt><trkpt lat="55.8272879" lon="48.9572502"><time>2022-05-10T07:04:14.030</time></trkpt><trkpt lat="55.8272695" lon="48.9573555"><time>2022-05-10T07:04:16.973</time></trkpt><trkpt lat="55.8272597" lon="48.9574610"><time>2022-05-10T07:04:20.047</time></trkpt><trkpt lat="55.8272513" lon="48.9575582"><time>2022-05-10T07:04:22.973</time></trkpt><trkpt lat="55.8272354" lon="48.9576385"><time>2022-05-10T07:04:26.010</time></trkpt><trkpt lat="55.8272190" lon="48.9577333"><time>2022-05-10T07:04:28.970</time></trkpt><trkpt lat="55.8272016" lon="48.9578438"><time>2022-05-10T07:04:32.030</time></trkpt><trkpt lat="55.8271830" lon="48.9579508"><time>2022-05-10T07:04:34.970</time></trkpt><trkpt lat="55.8271683" lon="48.9580661"><time>2022-05-10T07:04:38.017</time></trkpt><trkpt lat="55.8271541" lon="48.9581847"><time>2022-05-10T07:04:40.973</time></trkpt><trkpt lat="55.8271387" lon="48.9582818"><time>2022-05-10T07:04:44.027</time></trkpt><trkpt lat="55.8271269" lon="48.9583744"><time>2022-05-10T07:04:46.977</time></trkpt><trkpt lat="55.8271118" lon="48.9584562"><time>2022-05-10T07:04:50.030</time></trkpt><trkpt lat="55.8271051" lon="48.9585459"><time>2022-05-10T07:04:52.973</time></trkpt><trkpt lat="55.8270881" lon="48.9586479"><time>2022-05-10T07:04:56.040</time></trkpt><trkpt lat="55.8270670" lon="48.9587612"><time>2022-05-10T07:04:58.963</time></trkpt><trkpt lat="55.8270487" lon="48.9588643"><time>2022-05-10T07:05:02.987</time></trkpt><trkpt lat="55.8270343" lon="48.9589677"><time>2022-05-10T07:05:06.973</time></trkpt><trkpt lat="55.8270220" lon="48.9590672"><time>2022-05-10T07:05:09.977</time></trkpt><trkpt lat="55.8270067" lon="48.9591644"><time>2022-05-10T07:05:13.043</time></trkpt><trkpt lat="55.8269923" lon="48.9592645"><time>2022-05-10T07:05:15.977</time></trkpt><trkpt lat="55.8269732" lon="48.9593471"><time>2022-05-10T07:05:17.973</time></trkpt><trkpt lat="55.8269452" lon="48.9594588"><time>2022-05-10T07:05:20.980</time></trkpt><trkpt lat="55.8269338" lon="48.9595459"><time>2022-05-10T07:05:22.967</time></trkpt><trkpt lat="55.8269264" lon="48.9596393"><time>2022-05-10T07:05:25.980</time></trkpt><trkpt lat="55.8269209" lon="48.9597194"><time>2022-05-10T07:05:27.980</time></trkpt><trkpt lat="55.8269103" lon="48.9597986"><time>2022-05-10T07:05:31.047</time></trkpt><trkpt lat="55.8268872" lon="48.9599037"><time>2022-05-10T07:05:33.970</time></trkpt><trkpt lat="55.8268708" lon="48.9600030"><time>2022-05-10T07:05:37.060</time></trkpt><trkpt lat="55.8268595" lon="48.9600875"><time>2022-05-10T07:05:39.990</time></trkpt><trkpt lat="55.8268495" lon="48.9601955"><time>2022-05-10T07:05:43.037</time></trkpt><trkpt lat="55.8268476" lon="48.9602940"><time>2022-05-10T07:05:45.977</time></trkpt><trkpt lat="55.8268443" lon="48.9603947"><time>2022-05-10T07:05:49.060</time></trkpt><trkpt lat="55.8268403" lon="48.9604762"><time>2022-05-10T07:05:50.980</time></trkpt><trkpt lat="55.8268194" lon="48.9605625"><time>2022-05-10T07:05:53.977</time></trkpt><trkpt lat="55.8268046" lon="48.9606403"><time>2022-05-10T07:05:55.987</time></trkpt><trkpt lat="55.8267923" lon="48.9607230"><time>2022-05-10T07:05:57.980</time></trkpt><trkpt lat="55.8267804" lon="48.9608332"><time>2022-05-10T07:06:00.977</time></trkpt><trkpt lat="55.8267611" lon="48.9609350"><time>2022-05-10T07:06:03.980</time></trkpt><trkpt lat="55.8267351" lon="48.9610340"><time>2022-05-10T07:06:06.997</time></trkpt><trkpt lat="55.8267152" lon="48.9611317"><time>2022-05-10T07:06:09.997</time></trkpt><trkpt lat="55.8267031" lon="48.9612173"><time>2022-05-10T07:06:12.980</time></trkpt><trkpt lat="55.8266983" lon="48.9613080"><time>2022-05-10T07:06:17.040</time></trkpt><trkpt lat="55.8266866" lon="48.9614071"><time>2022-05-10T07:06:19.977</time></trkpt><trkpt lat="55.8266707" lon="48.9615069"><time>2022-05-10T07:06:23.057</time></trkpt><trkpt lat="55.8266542" lon="48.9616180"><time>2022-05-10T07:06:25.980</time></trkpt><trkpt lat="55.8266400" lon="48.9617402"><time>2022-05-10T07:06:29.037</time></trkpt><trkpt lat="55.8266322" lon="48.9618499"><time>2022-05-10T07:06:31.990</time></trkpt><trkpt lat="55.8266149" lon="48.9619569"><time>2022-05-10T07:06:35.047</time></trkpt><trkpt lat="55.8266003" lon="48.9620650"><time>2022-05-10T07:06:37.977</time></trkpt><trkpt lat="55.8265857" lon="48.9621411"><time>2022-05-10T07:06:39.980</time></trkpt><trkpt lat="55.8265616" lon="48.9622455"><time>2022-05-10T07:06:42.983</time></trkpt><trkpt lat="55.8265430" lon="48.9623493"><time>2022-05-10T07:06:45.987</time></trkpt><trkpt lat="55.8265259" lon="48.9624442"><time>2022-05-10T07:06:48.973</time></trkpt><trkpt lat="55.8265114" lon="48.9625528"><time>2022-05-10T07:06:51.973</time></trkpt><trkpt lat="55.8264853" lon="48.9626522"><time>2022-05-10T07:06:54.977</time></trkpt><trkpt lat="55.8264644" lon="48.9627514"><time>2022-05-10T07:06:58.050</time></trkpt><trkpt lat="55.8264578" lon="48.9628327"><time>2022-05-10T07:06:59.977</time></trkpt><trkpt lat="55.8264516" lon="48.9629197"><time>2022-05-10T07:07:01.977</time></trkpt><trkpt lat="55.8264389" lon="48.9630334"><time>2022-05-10T07:07:04.977</time></trkpt><trkpt lat="55.8264237" lon="48.9631156"><time>2022-05-10T07:07:06.977</time></trkpt><trkpt lat="55.8264091" lon="48.9631920"><time>2022-05-10T07:07:10.047</time></trkpt><trkpt lat="55.8264031" lon="48.9632922"><time>2022-05-10T07:07:13.977</time></trkpt><trkpt lat="55.8263977" lon="48.9633765"><time>2022-05-10T07:07:17.977</time></trkpt><trkpt lat="55.8263839" lon="48.9634780"><time>2022-05-10T07:07:22.043</time></trkpt><trkpt lat="55.8263702" lon="48.9635739"><time>2022-05-10T07:07:25.973</time></trkpt><trkpt lat="55.8263514" lon="48.9636584"><time>2022-05-10T07:07:28.977</time></trkpt><trkpt lat="55.8263284" lon="48.9637667"><time>2022-05-10T07:07:31.980</time></trkpt><trkpt lat="55.8263118" lon="48.9638452"><time>2022-05-10T07:07:34.033</time></trkpt><trkpt lat="55.8262941" lon="48.9639458"><time>2022-05-10T07:07:36.977</time></trkpt><trkpt lat="55.8262757" lon="48.9640419"><time>2022-05-10T07:07:40.037</time></trkpt><trkpt lat="55.8262533" lon="48.9641326"><time>2022-05-10T07:07:42.977</time></trkpt><trkpt lat="55.8262358" lon="48.9642336"><time>2022-05-10T07:07:46.977</time></trkpt><trkpt lat="55.8262191" lon="48.9643223"><time>2022-05-10T07:07:49.977</time></trkpt><trkpt lat="55.8262035" lon="48.9644062"><time>2022-05-10T07:07:52.977</time></trkpt><trkpt lat="55.8261912" lon="48.9644839"><time>2022-05-10T07:07:57.020</time></trkpt><trkpt lat="55.8261788" lon="48.9645851"><time>2022-05-10T07:07:59.977</time></trkpt><trkpt lat="55.8261620" lon="48.9646863"><time>2022-05-10T07:08:03.017</time></trkpt><trkpt lat="55.8261478" lon="48.9647754"><time>2022-05-10T07:08:05.967</time></trkpt><trkpt lat="55.8261354" lon="48.9648652"><time>2022-05-10T07:08:09.040</time></trkpt><trkpt lat="55.8261213" lon="48.9649670"><time>2022-05-10T07:08:13.977</time></trkpt><trkpt lat="55.8261055" lon="48.9650451"><time>2022-05-10T07:08:15.977</time></trkpt><trkpt lat="55.8260838" lon="48.9651459"><time>2022-05-10T07:08:18.977</time></trkpt><trkpt lat="55.8260660" lon="48.9652233"><time>2022-05-10T07:08:21.043</time></trkpt><trkpt lat="55.8260504" lon="48.9653281"><time>2022-05-10T07:08:23.977</time></trkpt><trkpt lat="55.8260332" lon="48.9654297"><time>2022-05-10T07:08:27.037</time></trkpt><trkpt lat="55.8260179" lon="48.9655083"><time>2022-05-10T07:08:28.977</time></trkpt><trkpt lat="55.8260025" lon="48.9655856"><time>2022-05-10T07:08:30.977</time></trkpt><trkpt lat="55.8259865" lon="48.9656953"><time>2022-05-10T07:08:33.970</time></trkpt><trkpt lat="55.8259701" lon="48.9657951"><time>2022-05-10T07:08:36.977</time></trkpt><trkpt lat="55.8259520" lon="48.9658860"><time>2022-05-10T07:08:39.977</time></trkpt><trkpt lat="55.8259265" lon="48.9659809"><time>2022-05-10T07:08:42.983</time></trkpt><trkpt lat="55.8259082" lon="48.9660607"><time>2022-05-10T07:08:45.970</time></trkpt><trkpt lat="55.8258885" lon="48.9661671"><time>2022-05-10T07:08:49.977</time></trkpt><trkpt lat="55.8258731" lon="48.9662818"><time>2022-05-10T07:08:52.977</time></trkpt><trkpt lat="55.8258645" lon="48.9663685"><time>2022-05-10T07:08:54.977</time></trkpt><trkpt lat="55.8258502" lon="48.9664729"><time>2022-05-10T07:08:57.037</time></trkpt><trkpt lat="55.8258368" lon="48.9665823"><time>2022-05-10T07:08:59.977</time></trkpt><trkpt lat="55.8258227" lon="48.9666709"><time>2022-05-10T07:09:03.017</time></trkpt><trkpt lat="55.8258074" lon="48.9667722"><time>2022-05-10T07:09:05.963</time></trkpt><trkpt lat="55.8257856" lon="48.9668869"><time>2022-05-10T07:09:08.980</time></trkpt><trkpt lat="55.8257588" lon="48.9669958"><time>2022-05-10T07:09:11.993</time></trkpt><trkpt lat="55.8257500" lon="48.9670362"><time>2022-05-10T07:09:12.950</time></trkpt><trkpt lat="55.8257364" lon="48.9671178"><time>2022-05-10T07:09:14.957</time></trkpt><trkpt lat="55.8257219" lon="48.9672015"><time>2022-05-10T07:09:17.973</time></trkpt><trkpt lat="55.8256761" lon="48.9672430"><time>2022-05-10T07:09:20.973</time></trkpt><trkpt lat="55.8256240" lon="48.9672666"><time>2022-05-10T07:09:23.953</time></trkpt><trkpt lat="55.8255712" lon="48.9672939"><time>2022-05-10T07:09:26.947</time></trkpt><trkpt lat="55.8255110" lon="48.9673181"><time>2022-05-10T07:09:29.967</time></trkpt><trkpt lat="55.8254543" lon="48.9673298"><time>2022-05-10T07:09:32.957</time></trkpt><trkpt lat="55.8253929" lon="48.9673288"><time>2022-05-10T07:09:35.950</time></trkpt><trkpt lat="55.8253301" lon="48.9673538"><time>2022-05-10T07:09:38.960</time></trkpt><trkpt lat="55.8252715" lon="48.9674019"><time>2022-05-10T07:09:41.967</time></trkpt><trkpt lat="55.8252131" lon="48.9673851"><time>2022-05-10T07:09:44.957</time></trkpt><trkpt lat="55.8251512" lon="48.9673760"><time>2022-05-10T07:09:47.970</time></trkpt><trkpt lat="55.8250884" lon="48.9674005"><time>2022-05-10T07:09:50.953</time></trkpt><trkpt lat="55.8250257" lon="48.9674046"><time>2022-05-10T07:09:53.973</time></trkpt><trkpt lat="55.8249713" lon="48.9674313"><time>2022-05-10T07:09:57.050</time></trkpt><trkpt lat="55.8249256" lon="48.9675094"><time>2022-05-10T07:09:59.963</time></trkpt><trkpt lat="55.8249119" lon="48.9676100"><time>2022-05-10T07:10:03.043</time></trkpt><trkpt lat="55.8249255" lon="48.9677205"><time>2022-05-10T07:10:05.973</time></trkpt><trkpt lat="55.8249402" lon="48.9677962"><time>2022-05-10T07:10:07.970</time></trkpt><trkpt lat="55.8249500" lon="48.9678761"><time>2022-05-10T07:10:09.950</time></trkpt><trkpt lat="55.8249558" lon="48.9679944"><time>2022-05-10T07:10:12.970</time></trkpt><trkpt lat="55.8249552" lon="48.9681070"><time>2022-05-10T07:10:15.997</time></trkpt><trkpt lat="55.8249540" lon="48.9681421"><time>2022-05-10T07:10:16.973</time></trkpt><trkpt lat="55.8249575" lon="48.9682515"><time>2022-05-10T07:10:19.980</time></trkpt><trkpt lat="55.8249580" lon="48.9683639"><time>2022-05-10T07:10:22.987</time></trkpt><trkpt lat="55.8249554" lon="48.9684809"><time>2022-05-10T07:10:25.980</time></trkpt><trkpt lat="55.8249485" lon="48.9685937"><time>2022-05-10T07:10:28.973</time></trkpt><trkpt lat="55.8249458" lon="48.9687063"><time>2022-05-10T07:10:31.967</time></trkpt><trkpt lat="55.8249357" lon="48.9688160"><time>2022-05-10T07:10:34.983</time></trkpt><trkpt lat="55.8249268" lon="48.9689334"><time>2022-05-10T07:10:38.013</time></trkpt><trkpt lat="55.8249275" lon="48.9689746"><time>2022-05-10T07:10:39.030</time></trkpt><trkpt lat="55.8249285" lon="48.9690568"><time>2022-05-10T07:10:40.967</time></trkpt><trkpt lat="55.8249333" lon="48.9691690"><time>2022-05-10T07:10:43.970</time></trkpt><trkpt lat="55.8249506" lon="48.9692824"><time>2022-05-10T07:10:46.970</time></trkpt><trkpt lat="55.8249506" lon="48.9692824"><time>2022-05-10T07:10:47.020</time></trkpt><trkpt lat="55.8249601" lon="48.9693986"><time>2022-05-10T07:10:50.007</time></trkpt><trkpt lat="55.8249568" lon="48.9694416"><time>2022-05-10T07:10:50.970</time></trkpt><trkpt lat="55.8249387" lon="48.9695238"><time>2022-05-10T07:10:52.960</time></trkpt><trkpt lat="55.8249082" lon="48.9695863"><time>2022-05-10T07:10:54.977</time></trkpt><trkpt lat="55.8248692" lon="48.9696813"><time>2022-05-10T07:10:57.977</time></trkpt><trkpt lat="55.8248671" lon="48.9697930"><time>2022-05-10T07:11:01.017</time></trkpt><trkpt lat="55.8248697" lon="48.9699128"><time>2022-05-10T07:11:03.980</time></trkpt><trkpt lat="55.8248699" lon="48.9699946"><time>2022-05-10T07:11:05.977</time></trkpt><trkpt lat="55.8248661" lon="48.9700775"><time>2022-05-10T07:11:07.980</time></trkpt><trkpt lat="55.8248571" lon="48.9701561"><time>2022-05-10T07:11:09.977</time></trkpt><trkpt lat="55.8248434" lon="48.9702347"><time>2022-05-10T07:11:11.970</time></trkpt><trkpt lat="55.8248252" lon="48.9703447"><time>2022-05-10T07:11:14.980</time></trkpt><trkpt lat="55.8248064" lon="48.9704514"><time>2022-05-10T07:11:17.977</time></trkpt><trkpt lat="55.8248039" lon="48.9705616"><time>2022-05-10T07:11:20.977</time></trkpt><trkpt lat="55.8248105" lon="48.9706770"><time>2022-05-10T07:11:23.977</time></trkpt><trkpt lat="55.8248197" lon="48.9707926"><time>2022-05-10T07:11:26.970</time></trkpt><trkpt lat="55.8248417" lon="48.9708996"><time>2022-05-10T07:11:29.977</time></trkpt><trkpt lat="55.8248821" lon="48.9709968"><time>2022-05-10T07:11:32.980</time></trkpt><trkpt lat="55.8249126" lon="48.9710583"><time>2022-05-10T07:11:34.987</time></trkpt><trkpt lat="55.8249552" lon="48.9711444"><time>2022-05-10T07:11:37.977</time></trkpt><trkpt lat="55.8249944" lon="48.9712320"><time>2022-05-10T07:11:40.973</time></trkpt><trkpt lat="55.8250115" lon="48.9713060"><time>2022-05-10T07:11:42.980</time></trkpt><trkpt lat="55.8250294" lon="48.9713792"><time>2022-05-10T07:11:44.980</time></trkpt><trkpt lat="55.8250464" lon="48.9714575"><time>2022-05-10T07:11:46.977</time></trkpt><trkpt lat="55.8250607" lon="48.9715401"><time>2022-05-10T07:11:48.977</time></trkpt><trkpt lat="55.8250705" lon="48.9716204"><time>2022-05-10T07:11:50.977</time></trkpt><trkpt lat="55.8250815" lon="48.9716999"><time>2022-05-10T07:11:52.980</time></trkpt><trkpt lat="55.8250947" lon="48.9717777"><time>2022-05-10T07:11:54.977</time></trkpt><trkpt lat="55.8251020" lon="48.9718611"><time>2022-05-10T07:11:56.977</time></trkpt><trkpt lat="55.8251088" lon="48.9719527"><time>2022-05-10T07:11:58.977</time></trkpt><trkpt lat="55.8251197" lon="48.9720383"><time>2022-05-10T07:12:00.973</time></trkpt><trkpt lat="55.8251328" lon="48.9721172"><time>2022-05-10T07:12:02.977</time></trkpt><trkpt lat="55.8251461" lon="48.9721939"><time>2022-05-10T07:12:04.977</time></trkpt><trkpt lat="55.8251601" lon="48.9722722"><time>2022-05-10T07:12:06.980</time></trkpt><trkpt lat="55.8251698" lon="48.9723512"><time>2022-05-10T07:12:08.977</time></trkpt><trkpt lat="55.8251766" lon="48.9724315"><time>2022-05-10T07:12:10.980</time></trkpt><trkpt lat="55.8251794" lon="48.9725136"><time>2022-05-10T07:12:12.967</time></trkpt><trkpt lat="55.8251794" lon="48.9725982"><time>2022-05-10T07:12:14.977</time></trkpt><trkpt lat="55.8251777" lon="48.9726851"><time>2022-05-10T07:12:16.977</time></trkpt><trkpt lat="55.8251762" lon="48.9727685"><time>2022-05-10T07:12:18.973</time></trkpt><trkpt lat="55.8251699" lon="48.9728511"><time>2022-05-10T07:12:20.973</time></trkpt><trkpt lat="55.8251570" lon="48.9729350"><time>2022-05-10T07:12:22.967</time></trkpt><trkpt lat="55.8251418" lon="48.9730190"><time>2022-05-10T07:12:24.977</time></trkpt><trkpt lat="55.8251276" lon="48.9731053"><time>2022-05-10T07:12:26.977</time></trkpt><trkpt lat="55.8251159" lon="48.9731870"><time>2022-05-10T07:12:28.977</time></trkpt><trkpt lat="55.8251031" lon="48.9732670"><time>2022-05-10T07:12:30.970</time></trkpt><trkpt lat="55.8250901" lon="48.9733457"><time>2022-05-10T07:12:32.977</time></trkpt><trkpt lat="55.8250777" lon="48.9734245"><time>2022-05-10T07:12:34.977</time></trkpt><trkpt lat="55.8250653" lon="48.9735023"><time>2022-05-10T07:12:36.977</time></trkpt><trkpt lat="55.8250517" lon="48.9735821"><time>2022-05-10T07:12:38.977</time></trkpt><trkpt lat="55.8250363" lon="48.9736619"><time>2022-05-10T07:12:40.977</time></trkpt><trkpt lat="55.8250218" lon="48.9737425"><time>2022-05-10T07:12:42.977</time></trkpt><trkpt lat="55.8250052" lon="48.9738590"><time>2022-05-10T07:12:45.977</time></trkpt><trkpt lat="55.8249864" lon="48.9739702"><time>2022-05-10T07:12:48.983</time></trkpt><trkpt lat="55.8249713" lon="48.9740465"><time>2022-05-10T07:12:50.977</time></trkpt><trkpt lat="55.8249515" lon="48.9741610"><time>2022-05-10T07:12:54.037</time></trkpt><trkpt lat="55.8249310" lon="48.9742746"><time>2022-05-10T07:12:56.973</time></trkpt><trkpt lat="55.8249187" lon="48.9743522"><time>2022-05-10T07:12:58.977</time></trkpt><trkpt lat="55.8249058" lon="48.9744289"><time>2022-05-10T07:13:00.977</time></trkpt><trkpt lat="55.8248814" lon="48.9745417"><time>2022-05-10T07:13:03.997</time></trkpt><trkpt lat="55.8248614" lon="48.9746197"><time>2022-05-10T07:13:06.030</time></trkpt><trkpt lat="55.8248446" lon="48.9747217"><time>2022-05-10T07:13:08.980</time></trkpt><trkpt lat="55.8248283" lon="48.9748248"><time>2022-05-10T07:13:11.977</time></trkpt><trkpt lat="55.8248052" lon="48.9749288"><time>2022-05-10T07:13:14.977</time></trkpt><trkpt lat="55.8247809" lon="48.9750289"><time>2022-05-10T07:13:17.977</time></trkpt><trkpt lat="55.8247566" lon="48.9751395"><time>2022-05-10T07:13:20.980</time></trkpt><trkpt lat="55.8247272" lon="48.9752446"><time>2022-05-10T07:13:23.977</time></trkpt><trkpt lat="55.8247052" lon="48.9753183"><time>2022-05-10T07:13:25.973</time></trkpt><trkpt lat="55.8246871" lon="48.9753937"><time>2022-05-10T07:13:27.977</time></trkpt><trkpt lat="55.8246704" lon="48.9755062"><time>2022-05-10T07:13:30.977</time></trkpt><trkpt lat="55.8246636" lon="48.9755867"><time>2022-05-10T07:13:32.973</time></trkpt><trkpt lat="55.8246579" lon="48.9756675"><time>2022-05-10T07:13:35.037</time></trkpt><trkpt lat="55.8246466" lon="48.9757865"><time>2022-05-10T07:13:37.977</time></trkpt><trkpt lat="55.8246358" lon="48.9759012"><time>2022-05-10T07:13:41.047</time></trkpt><trkpt lat="55.8246246" lon="48.9759800"><time>2022-05-10T07:13:42.990</time></trkpt><trkpt lat="55.8246054" lon="48.9760890"><time>2022-05-10T07:13:45.963</time></trkpt><trkpt lat="55.8245916" lon="48.9761670"><time>2022-05-10T07:13:47.977</time></trkpt><trkpt lat="55.8245702" lon="48.9762690"><time>2022-05-10T07:13:50.970</time></trkpt><trkpt lat="55.8245547" lon="48.9763830"><time>2022-05-10T07:13:53.977</time></trkpt><trkpt lat="55.8245440" lon="48.9764629"><time>2022-05-10T07:13:55.967</time></trkpt><trkpt lat="55.8245268" lon="48.9765760"><time>2022-05-10T07:13:58.977</time></trkpt><trkpt lat="55.8245128" lon="48.9766850"><time>2022-05-10T07:14:01.977</time></trkpt><trkpt lat="55.8245063" lon="48.9767931"><time>2022-05-10T07:14:04.967</time></trkpt><trkpt lat="55.8245015" lon="48.9769025"><time>2022-05-10T07:14:07.977</time></trkpt><trkpt lat="55.8244841" lon="48.9770066"><time>2022-05-10T07:14:10.980</time></trkpt><trkpt lat="55.8244585" lon="48.9771075"><time>2022-05-10T07:14:13.977</time></trkpt><trkpt lat="55.8244398" lon="48.9772200"><time>2022-05-10T07:14:16.957</time></trkpt><trkpt lat="55.8244265" lon="48.9772998"><time>2022-05-10T07:14:18.953</time></trkpt><trkpt lat="55.8244123" lon="48.9773895"><time>2022-05-10T07:14:20.953</time></trkpt><trkpt lat="55.8243966" lon="48.9774746"><time>2022-05-10T07:14:22.957</time></trkpt><trkpt lat="55.8243793" lon="48.9775608"><time>2022-05-10T07:14:24.967</time></trkpt><trkpt lat="55.8243634" lon="48.9776495"><time>2022-05-10T07:14:26.957</time></trkpt><trkpt lat="55.8243523" lon="48.9777350"><time>2022-05-10T07:14:28.967</time></trkpt><trkpt lat="55.8243393" lon="48.9778176"><time>2022-05-10T07:14:30.963</time></trkpt><trkpt lat="55.8243250" lon="48.9778966"><time>2022-05-10T07:14:32.963</time></trkpt><trkpt lat="55.8243092" lon="48.9779755"><time>2022-05-10T07:14:34.973</time></trkpt><trkpt lat="55.8242926" lon="48.9780562"><time>2022-05-10T07:14:36.970</time></trkpt><trkpt lat="55.8242759" lon="48.9781354"><time>2022-05-10T07:14:38.967</time></trkpt><trkpt lat="55.8242594" lon="48.9782134"><time>2022-05-10T07:14:40.973</time></trkpt><trkpt lat="55.8242395" lon="48.9782886"><time>2022-05-10T07:14:42.963</time></trkpt><trkpt lat="55.8242211" lon="48.9783642"><time>2022-05-10T07:14:44.960</time></trkpt><trkpt lat="55.8242087" lon="48.9784445"><time>2022-05-10T07:14:46.960</time></trkpt><trkpt lat="55.8241967" lon="48.9785221"><time>2022-05-10T07:14:48.957</time></trkpt><trkpt lat="55.8241823" lon="48.9785982"><time>2022-05-10T07:14:50.963</time></trkpt><trkpt lat="55.8241696" lon="48.9786799"><time>2022-05-10T07:14:53</time></trkpt><trkpt lat="55.8241592" lon="48.9787598"><time>2022-05-10T07:14:54.950</time></trkpt><trkpt lat="55.8241483" lon="48.9788393"><time>2022-05-10T07:14:56.957</time></trkpt><trkpt lat="55.8241326" lon="48.9789158"><time>2022-05-10T07:14:58.977</time></trkpt><trkpt lat="55.8241143" lon="48.9789938"><time>2022-05-10T07:15:00.983</time></trkpt><trkpt lat="55.8240923" lon="48.9790722"><time>2022-05-10T07:15:03.003</time></trkpt><trkpt lat="55.8240710" lon="48.9791512"><time>2022-05-10T07:15:04.980</time></trkpt><trkpt lat="55.8240516" lon="48.9792336"><time>2022-05-10T07:15:06.983</time></trkpt><trkpt lat="55.8240421" lon="48.9793169"><time>2022-05-10T07:15:09.037</time></trkpt><trkpt lat="55.8240324" lon="48.9793993"><time>2022-05-10T07:15:10.977</time></trkpt><trkpt lat="55.8240231" lon="48.9794805"><time>2022-05-10T07:15:12.987</time></trkpt><trkpt lat="55.8240152" lon="48.9795635"><time>2022-05-10T07:15:15.023</time></trkpt><trkpt lat="55.8240049" lon="48.9796478"><time>2022-05-10T07:15:17</time></trkpt><trkpt lat="55.8239901" lon="48.9797320"><time>2022-05-10T07:15:18.983</time></trkpt><trkpt lat="55.8239717" lon="48.9798156"><time>2022-05-10T07:15:21.023</time></trkpt><trkpt lat="55.8239575" lon="48.9798999"><time>2022-05-10T07:15:22.977</time></trkpt><trkpt lat="55.8239470" lon="48.9799860"><time>2022-05-10T07:15:24.983</time></trkpt><trkpt lat="55.8239412" lon="48.9800730"><time>2022-05-10T07:15:27.043</time></trkpt><trkpt lat="55.8239332" lon="48.9801565"><time>2022-05-10T07:15:28.977</time></trkpt><trkpt lat="55.8239186" lon="48.9802356"><time>2022-05-10T07:15:30.983</time></trkpt><trkpt lat="55.8239042" lon="48.9803198"><time>2022-05-10T07:15:33.047</time></trkpt><trkpt lat="55.8238865" lon="48.9804034"><time>2022-05-10T07:15:34.980</time></trkpt><trkpt lat="55.8238715" lon="48.9804867"><time>2022-05-10T07:15:36.987</time></trkpt><trkpt lat="55.8238561" lon="48.9805667"><time>2022-05-10T07:15:39.033</time></trkpt><trkpt lat="55.8238378" lon="48.9806476"><time>2022-05-10T07:15:40.993</time></trkpt><trkpt lat="55.8238189" lon="48.9807303"><time>2022-05-10T07:15:42.993</time></trkpt><trkpt lat="55.8238017" lon="48.9808124"><time>2022-05-10T07:15:45.040</time></trkpt><trkpt lat="55.8237863" lon="48.9808925"><time>2022-05-10T07:15:46.957</time></trkpt><trkpt lat="55.8237739" lon="48.9809758"><time>2022-05-10T07:15:48.987</time></trkpt><trkpt lat="55.8237615" lon="48.9810584"><time>2022-05-10T07:15:51.043</time></trkpt><trkpt lat="55.8237521" lon="48.9811482"><time>2022-05-10T07:15:52.977</time></trkpt><trkpt lat="55.8237423" lon="48.9812567"><time>2022-05-10T07:15:55.977</time></trkpt><trkpt lat="55.8237365" lon="48.9813598"><time>2022-05-10T07:15:58.953</time></trkpt><trkpt lat="55.8237253" lon="48.9814601"><time>2022-05-10T07:16:01.990</time></trkpt><trkpt lat="55.8236996" lon="48.9815606"><time>2022-05-10T07:16:04.967</time></trkpt><trkpt lat="55.8236799" lon="48.9816648"><time>2022-05-10T07:16:07.990</time></trkpt><trkpt lat="55.8236667" lon="48.9817814"><time>2022-05-10T07:16:10.990</time></trkpt><trkpt lat="55.8236571" lon="48.9818597"><time>2022-05-10T07:16:12.973</time></trkpt><trkpt lat="55.8236428" lon="48.9819359"><time>2022-05-10T07:16:15.050</time></trkpt><trkpt lat="55.8236242" lon="48.9820494"><time>2022-05-10T07:16:17.977</time></trkpt><trkpt lat="55.8236080" lon="48.9821293"><time>2022-05-10T07:16:19.980</time></trkpt><trkpt lat="55.8235953" lon="48.9822077"><time>2022-05-10T07:16:21.983</time></trkpt><trkpt lat="55.8235716" lon="48.9823154"><time>2022-05-10T07:16:24.977</time></trkpt><trkpt lat="55.8235436" lon="48.9824210"><time>2022-05-10T07:16:27.990</time></trkpt><trkpt lat="55.8235256" lon="48.9825195"><time>2022-05-10T07:16:30.990</time></trkpt><trkpt lat="55.8235151" lon="48.9826272"><time>2022-05-10T07:16:33.993</time></trkpt><trkpt lat="55.8235081" lon="48.9827401"><time>2022-05-10T07:16:36.990</time></trkpt><trkpt lat="55.8234906" lon="48.9828549"><time>2022-05-10T07:16:39.997</time></trkpt><trkpt lat="55.8234751" lon="48.9829326"><time>2022-05-10T07:16:41.993</time></trkpt><trkpt lat="55.8234570" lon="48.9830503"><time>2022-05-10T07:16:45.040</time></trkpt><trkpt lat="55.8234447" lon="48.9831347"><time>2022-05-10T07:16:46.977</time></trkpt><trkpt lat="55.8234314" lon="48.9832205"><time>2022-05-10T07:16:48.977</time></trkpt><trkpt lat="55.8234188" lon="48.9833028"><time>2022-05-10T07:16:51.057</time></trkpt><trkpt lat="55.8234107" lon="48.9833844"><time>2022-05-10T07:16:52.977</time></trkpt><trkpt lat="55.8233979" lon="48.9834615"><time>2022-05-10T07:16:54.980</time></trkpt><trkpt lat="55.8233825" lon="48.9835401"><time>2022-05-10T07:16:57.053</time></trkpt><trkpt lat="55.8233658" lon="48.9836185"><time>2022-05-10T07:16:58.970</time></trkpt><trkpt lat="55.8233474" lon="48.9836937"><time>2022-05-10T07:17:00.987</time></trkpt><trkpt lat="55.8233307" lon="48.9837743"><time>2022-05-10T07:17:02.983</time></trkpt><trkpt lat="55.8233203" lon="48.9838524"><time>2022-05-10T07:17:04.980</time></trkpt><trkpt lat="55.8233105" lon="48.9839306"><time>2022-05-10T07:17:06.980</time></trkpt><trkpt lat="55.8233018" lon="48.9840514"><time>2022-05-10T07:17:09.987</time></trkpt><trkpt lat="55.8232962" lon="48.9841336"><time>2022-05-10T07:17:11.993</time></trkpt><trkpt lat="55.8232851" lon="48.9842148"><time>2022-05-10T07:17:14.047</time></trkpt><trkpt lat="55.8232623" lon="48.9843273"><time>2022-05-10T07:17:16.990</time></trkpt><trkpt lat="55.8232457" lon="48.9844020"><time>2022-05-10T07:17:18.973</time></trkpt><trkpt lat="55.8232274" lon="48.9844767"><time>2022-05-10T07:17:20.997</time></trkpt><trkpt lat="55.8232113" lon="48.9845523"><time>2022-05-10T07:17:22.977</time></trkpt><trkpt lat="55.8231967" lon="48.9846307"><time>2022-05-10T07:17:24.977</time></trkpt><trkpt lat="55.8231832" lon="48.9847091"><time>2022-05-10T07:17:26.980</time></trkpt><trkpt lat="55.8231720" lon="48.9847865"><time>2022-05-10T07:17:28.980</time></trkpt><trkpt lat="55.8231608" lon="48.9848665"><time>2022-05-10T07:17:30.977</time></trkpt><trkpt lat="55.8231479" lon="48.9849445"><time>2022-05-10T07:17:32.977</time></trkpt><trkpt lat="55.8231271" lon="48.9850570"><time>2022-05-10T07:17:36.007</time></trkpt><trkpt lat="55.8231058" lon="48.9851693"><time>2022-05-10T07:17:38.967</time></trkpt><trkpt lat="55.8230911" lon="48.9852452"><time>2022-05-10T07:17:40.977</time></trkpt><trkpt lat="55.8230734" lon="48.9853589"><time>2022-05-10T07:17:44.013</time></trkpt><trkpt lat="55.8230573" lon="48.9854718"><time>2022-05-10T07:17:46.977</time></trkpt><trkpt lat="55.8230468" lon="48.9855498"><time>2022-05-10T07:17:48.970</time></trkpt><trkpt lat="55.8230359" lon="48.9856641"><time>2022-05-10T07:17:51.967</time></trkpt><trkpt lat="55.8230285" lon="48.9857435"><time>2022-05-10T07:17:53.967</time></trkpt><trkpt lat="55.8230181" lon="48.9858268"><time>2022-05-10T07:17:55.960</time></trkpt><trkpt lat="55.8230048" lon="48.9859089"><time>2022-05-10T07:17:57.980</time></trkpt><trkpt lat="55.8229896" lon="48.9859879"><time>2022-05-10T07:17:59.977</time></trkpt><trkpt lat="55.8229809" lon="48.9860958"><time>2022-05-10T07:18:02.977</time></trkpt><trkpt lat="55.8229670" lon="48.9862050"><time>2022-05-10T07:18:05.973</time></trkpt><trkpt lat="55.8229521" lon="48.9863156"><time>2022-05-10T07:18:08.980</time></trkpt><trkpt lat="55.8229457" lon="48.9863963"><time>2022-05-10T07:18:10.977</time></trkpt><trkpt lat="55.8229440" lon="48.9864765"><time>2022-05-10T07:18:13.023</time></trkpt><trkpt lat="55.8229303" lon="48.9865559"><time>2022-05-10T07:18:14.977</time></trkpt><trkpt lat="55.8229179" lon="48.9866332"><time>2022-05-10T07:18:16.960</time></trkpt><trkpt lat="55.8229088" lon="48.9867148"><time>2022-05-10T07:18:19.037</time></trkpt><trkpt lat="55.8229003" lon="48.9867936"><time>2022-05-10T07:18:20.997</time></trkpt><trkpt lat="55.8228970" lon="48.9868349"><time>2022-05-10T07:18:21.953</time></trkpt><trkpt lat="55.8228930" lon="48.9869153"><time>2022-05-10T07:18:23.973</time></trkpt><trkpt lat="55.8228833" lon="48.9869934"><time>2022-05-10T07:18:25.973</time></trkpt><trkpt lat="55.8228707" lon="48.9870758"><time>2022-05-10T07:18:27.973</time></trkpt><trkpt lat="55.8228644" lon="48.9871553"><time>2022-05-10T07:18:29.973</time></trkpt><trkpt lat="55.8228627" lon="48.9872558"><time>2022-05-10T07:18:32.987</time></trkpt><trkpt lat="55.8228523" lon="48.9873688"><time>2022-05-10T07:18:35.973</time></trkpt><trkpt lat="55.8228356" lon="48.9874777"><time>2022-05-10T07:18:38.977</time></trkpt><trkpt lat="55.8228162" lon="48.9875896"><time>2022-05-10T07:18:41.983</time></trkpt><trkpt lat="55.8228097" lon="48.9876825"><time>2022-05-10T07:18:44.973</time></trkpt><trkpt lat="55.8227973" lon="48.9877717"><time>2022-05-10T07:18:46.977</time></trkpt><trkpt lat="55.8227802" lon="48.9878633"><time>2022-05-10T07:18:49.033</time></trkpt><trkpt lat="55.8227581" lon="48.9879448"><time>2022-05-10T07:18:50.977</time></trkpt><trkpt lat="55.8227370" lon="48.9880224"><time>2022-05-10T07:18:52.963</time></trkpt><trkpt lat="55.8227186" lon="48.9881046"><time>2022-05-10T07:18:54.960</time></trkpt><trkpt lat="55.8227101" lon="48.9881843"><time>2022-05-10T07:18:56.977</time></trkpt><trkpt lat="55.8227017" lon="48.9883012"><time>2022-05-10T07:19:00.013</time></trkpt><trkpt lat="55.8226978" lon="48.9883839"><time>2022-05-10T07:19:01.977</time></trkpt><trkpt lat="55.8226949" lon="48.9884694"><time>2022-05-10T07:19:03.977</time></trkpt><trkpt lat="55.8226931" lon="48.9885524"><time>2022-05-10T07:19:06.050</time></trkpt><trkpt lat="55.8226881" lon="48.9886730"><time>2022-05-10T07:19:08.973</time></trkpt><trkpt lat="55.8226825" lon="48.9887562"><time>2022-05-10T07:19:10.977</time></trkpt><trkpt lat="55.8226748" lon="48.9888358"><time>2022-05-10T07:19:12.980</time></trkpt><trkpt lat="55.8226650" lon="48.9889159"><time>2022-05-10T07:19:14.977</time></trkpt><trkpt lat="55.8226543" lon="48.9890011"><time>2022-05-10T07:19:17.047</time></trkpt><trkpt lat="55.8226413" lon="48.9890933"><time>2022-05-10T07:19:18.973</time></trkpt><trkpt lat="55.8226332" lon="48.9891917"><time>2022-05-10T07:19:20.977</time></trkpt><trkpt lat="55.8226388" lon="48.9892791"><time>2022-05-10T07:19:22.977</time></trkpt><trkpt lat="55.8226720" lon="48.9893487"><time>2022-05-10T07:19:24.997</time></trkpt><trkpt lat="55.8227176" lon="48.9893803"><time>2022-05-10T07:19:26.977</time></trkpt><trkpt lat="55.8227644" lon="48.9893978"><time>2022-05-10T07:19:29.047</time></trkpt><trkpt lat="55.8228236" lon="48.9894070"><time>2022-05-10T07:19:31.980</time></trkpt><trkpt lat="55.8228830" lon="48.9894240"><time>2022-05-10T07:19:35.007</time></trkpt><trkpt lat="55.8229461" lon="48.9894254"><time>2022-05-10T07:19:37.973</time></trkpt><trkpt lat="55.8230102" lon="48.9894038"><time>2022-05-10T07:19:41.027</time></trkpt><trkpt lat="55.8230556" lon="48.9894013"><time>2022-05-10T07:19:42.977</time></trkpt><trkpt lat="55.8231024" lon="48.9894167"><time>2022-05-10T07:19:45.010</time></trkpt><trkpt lat="55.8231242" lon="48.9894256"><time>2022-05-10T07:19:45.957</time></trkpt><trkpt lat="55.8231693" lon="48.9894331"><time>2022-05-10T07:19:47.977</time></trkpt><trkpt lat="55.8232152" lon="48.9894314"><time>2022-05-10T07:19:49.980</time></trkpt><trkpt lat="55.8232608" lon="48.9894273"><time>2022-05-10T07:19:51.977</time></trkpt><trkpt lat="55.8233074" lon="48.9894196"><time>2022-05-10T07:19:53.977</time></trkpt><trkpt lat="55.8233553" lon="48.9894024"><time>2022-05-10T07:19:55.977</time></trkpt><trkpt lat="55.8234019" lon="48.9893962"><time>2022-05-10T07:19:57.977</time></trkpt><trkpt lat="55.8234508" lon="48.9893943"><time>2022-05-10T07:19:59.977</time></trkpt><trkpt lat="55.8234981" lon="48.9893785"><time>2022-05-10T07:20:01.977</time></trkpt><trkpt lat="55.8235453" lon="48.9893657"><time>2022-05-10T07:20:04.003</time></trkpt><trkpt lat="55.8235691" lon="48.9893637"><time>2022-05-10T07:20:05.033</time></trkpt><trkpt lat="55.8236359" lon="48.9893590"><time>2022-05-10T07:20:07.967</time></trkpt><trkpt lat="55.8236821" lon="48.9893597"><time>2022-05-10T07:20:09.980</time></trkpt><trkpt lat="55.8237270" lon="48.9893556"><time>2022-05-10T07:20:11.983</time></trkpt><trkpt lat="55.8237723" lon="48.9893425"><time>2022-05-10T07:20:13.977</time></trkpt><trkpt lat="55.8238187" lon="48.9893303"><time>2022-05-10T07:20:15.980</time></trkpt><trkpt lat="55.8238641" lon="48.9893197"><time>2022-05-10T07:20:17.977</time></trkpt><trkpt lat="55.8239065" lon="48.9892912"><time>2022-05-10T07:20:19.990</time></trkpt><trkpt lat="55.8239065" lon="48.9892912"><time>2022-05-10T07:20:20.057</time></trkpt><trkpt lat="55.8239520" lon="48.9892150"><time>2022-05-10T07:20:23.007</time></trkpt><trkpt lat="55.8239603" lon="48.9891807"><time>2022-05-10T07:20:23.980</time></trkpt><trkpt lat="55.8239908" lon="48.9890953"><time>2022-05-10T07:20:26.973</time></trkpt><trkpt lat="55.8240319" lon="48.9890141"><time>2022-05-10T07:20:29.973</time></trkpt><trkpt lat="55.8240619" lon="48.9889539"><time>2022-05-10T07:20:31.990</time></trkpt><trkpt lat="55.8241065" lon="48.9888763"><time>2022-05-10T07:20:34.977</time></trkpt><trkpt lat="55.8241362" lon="48.9888153"><time>2022-05-10T07:20:36.977</time></trkpt><trkpt lat="55.8241781" lon="48.9887343"><time>2022-05-10T07:20:40.023</time></trkpt><trkpt lat="55.8242083" lon="48.9886395"><time>2022-05-10T07:20:42.977</time></trkpt><trkpt lat="55.8242446" lon="48.9885601"><time>2022-05-10T07:20:46.067</time></trkpt><trkpt lat="55.8242674" lon="48.9884888"><time>2022-05-10T07:20:47.963</time></trkpt><trkpt lat="55.8243535" lon="48.9884008"><time>2022-05-10T07:20:48.977</time></trkpt><trkpt lat="55.8244002" lon="48.9883514"><time>2022-05-10T07:20:50.990</time></trkpt><trkpt lat="55.8244234" lon="48.9882745"><time>2022-05-10T07:20:52.977</time></trkpt><trkpt lat="55.8244565" lon="48.9882184"><time>2022-05-10T07:20:54.977</time></trkpt><trkpt lat="55.8244937" lon="48.9881358"><time>2022-05-10T07:20:57.993</time></trkpt><trkpt lat="55.8245314" lon="48.9880361"><time>2022-05-10T07:21:00.987</time></trkpt><trkpt lat="55.8245625" lon="48.9879513"><time>2022-05-10T07:21:02.993</time></trkpt><trkpt lat="55.8245863" lon="48.9878641"><time>2022-05-10T07:21:04.973</time></trkpt><trkpt lat="55.8246019" lon="48.9877748"><time>2022-05-10T07:21:06.980</time></trkpt><trkpt lat="55.8246095" lon="48.9876772"><time>2022-05-10T07:21:08.977</time></trkpt><trkpt lat="55.8246247" lon="48.9875838"><time>2022-05-10T07:21:10.980</time></trkpt><trkpt lat="55.8246415" lon="48.9874928"><time>2022-05-10T07:21:12.980</time></trkpt><trkpt lat="55.8246668" lon="48.9873872"><time>2022-05-10T07:21:15.980</time></trkpt><trkpt lat="55.8246798" lon="48.9872792"><time>2022-05-10T07:21:18.973</time></trkpt><trkpt lat="55.8246719" lon="48.9871658"><time>2022-05-10T07:21:21.977</time></trkpt><trkpt lat="55.8246840" lon="48.9870657"><time>2022-05-10T07:21:24.970</time></trkpt><trkpt lat="55.8247081" lon="48.9869604"><time>2022-05-10T07:21:27.977</time></trkpt><trkpt lat="55.8247255" lon="48.9868868"><time>2022-05-10T07:21:29.977</time></trkpt><trkpt lat="55.8247534" lon="48.9867744"><time>2022-05-10T07:21:32.980</time></trkpt><trkpt lat="55.8247760" lon="48.9866944"><time>2022-05-10T07:21:34.977</time></trkpt><trkpt lat="55.8247970" lon="48.9866175"><time>2022-05-10T07:21:37.067</time></trkpt><trkpt lat="55.8248265" lon="48.9865365"><time>2022-05-10T07:21:38.977</time></trkpt><trkpt lat="55.8248491" lon="48.9864530"><time>2022-05-10T07:21:40.980</time></trkpt><trkpt lat="55.8248730" lon="48.9863635"><time>2022-05-10T07:21:43.977</time></trkpt><trkpt lat="55.8249079" lon="48.9863067"><time>2022-05-10T07:21:45.960</time></trkpt><trkpt lat="55.8249376" lon="48.9862452"><time>2022-05-10T07:21:47.980</time></trkpt><trkpt lat="55.8249693" lon="48.9861745"><time>2022-05-10T07:21:49.973</time></trkpt><trkpt lat="55.8250021" lon="48.9861135"><time>2022-05-10T07:21:51.973</time></trkpt><trkpt lat="55.8250373" lon="48.9860456"><time>2022-05-10T07:21:53.977</time></trkpt><trkpt lat="55.8250643" lon="48.9859788"><time>2022-05-10T07:21:55.977</time></trkpt><trkpt lat="55.8250994" lon="48.9858747"><time>2022-05-10T07:21:58.977</time></trkpt><trkpt lat="55.8251143" lon="48.9857869"><time>2022-05-10T07:22:01.020</time></trkpt><trkpt lat="55.8251286" lon="48.9857071"><time>2022-05-10T07:22:02.980</time></trkpt><trkpt lat="55.8251598" lon="48.9856031"><time>2022-05-10T07:22:05.980</time></trkpt><trkpt lat="55.8251781" lon="48.9854978"><time>2022-05-10T07:22:08.980</time></trkpt><trkpt lat="55.8252010" lon="48.9853946"><time>2022-05-10T07:22:11.977</time></trkpt><trkpt lat="55.8252163" lon="48.9853141"><time>2022-05-10T07:22:13.963</time></trkpt><trkpt lat="55.8252364" lon="48.9852339"><time>2022-05-10T07:22:15.980</time></trkpt><trkpt lat="55.8252672" lon="48.9851582"><time>2022-05-10T07:22:17.977</time></trkpt><trkpt lat="55.8252970" lon="48.9850866"><time>2022-05-10T07:22:19.993</time></trkpt><trkpt lat="55.8253252" lon="48.9850114"><time>2022-05-10T07:22:21.980</time></trkpt><trkpt lat="55.8253493" lon="48.9849376"><time>2022-05-10T07:22:23.977</time></trkpt><trkpt lat="55.8253845" lon="48.9848836"><time>2022-05-10T07:22:25.980</time></trkpt><trkpt lat="55.8254268" lon="48.9848540"><time>2022-05-10T07:22:27.977</time></trkpt><trkpt lat="55.8254809" lon="48.9848076"><time>2022-05-10T07:22:31.020</time></trkpt><trkpt lat="55.8255233" lon="48.9847776"><time>2022-05-10T07:22:32.967</time></trkpt><trkpt lat="55.8255906" lon="48.9847620"><time>2022-05-10T07:22:35.970</time></trkpt><trkpt lat="55.8256441" lon="48.9847319"><time>2022-05-10T07:22:39.977</time></trkpt><trkpt lat="55.8256874" lon="48.9846979"><time>2022-05-10T07:22:41.977</time></trkpt><trkpt lat="55.8257318" lon="48.9846650"><time>2022-05-10T07:22:43.980</time></trkpt><trkpt lat="55.8257879" lon="48.9846339"><time>2022-05-10T07:22:46.983</time></trkpt><trkpt lat="55.8258313" lon="48.9845985"><time>2022-05-10T07:22:49.977</time></trkpt><trkpt lat="55.8258866" lon="48.9845676"><time>2022-05-10T07:22:52.957</time></trkpt><trkpt lat="55.8259389" lon="48.9845428"><time>2022-05-10T07:22:55.047</time></trkpt><trkpt lat="55.8259963" lon="48.9844921"><time>2022-05-10T07:22:57.967</time></trkpt><trkpt lat="55.8260385" lon="48.9844236"><time>2022-05-10T07:23:01.037</time></trkpt><trkpt lat="55.8260810" lon="48.9843608"><time>2022-05-10T07:23:03.977</time></trkpt><trkpt lat="55.8261193" lon="48.9843146"><time>2022-05-10T07:23:05.977</time></trkpt><trkpt lat="55.8261612" lon="48.9842710"><time>2022-05-10T07:23:07.993</time></trkpt><trkpt lat="55.8262164" lon="48.9842250"><time>2022-05-10T07:23:10.970</time></trkpt><trkpt lat="55.8262694" lon="48.9841842"><time>2022-05-10T07:23:13.970</time></trkpt><trkpt lat="55.8263329" lon="48.9841728"><time>2022-05-10T07:23:16.980</time></trkpt><trkpt lat="55.8263887" lon="48.9841662"><time>2022-05-10T07:23:19.027</time></trkpt><trkpt lat="55.8264347" lon="48.9841557"><time>2022-05-10T07:23:20.977</time></trkpt><trkpt lat="55.8264902" lon="48.9841390"><time>2022-05-10T07:23:22.977</time></trkpt><trkpt lat="55.8265476" lon="48.9841164"><time>2022-05-10T07:23:25.057</time></trkpt><trkpt lat="55.8266067" lon="48.9840666"><time>2022-05-10T07:23:27.990</time></trkpt><trkpt lat="55.8266664" lon="48.9840249"><time>2022-05-10T07:23:31.030</time></trkpt><trkpt lat="55.8267316" lon="48.9839907"><time>2022-05-10T07:23:33.977</time></trkpt><trkpt lat="55.8267794" lon="48.9839822"><time>2022-05-10T07:23:35.977</time></trkpt><trkpt lat="55.8268266" lon="48.9839820"><time>2022-05-10T07:23:37.977</time></trkpt><trkpt lat="55.8268899" lon="48.9839895"><time>2022-05-10T07:23:40.977</time></trkpt><trkpt lat="55.8269520" lon="48.9839979"><time>2022-05-10T07:23:43.980</time></trkpt><trkpt lat="55.8269978" lon="48.9839891"><time>2022-05-10T07:23:45.973</time></trkpt><trkpt lat="55.8270593" lon="48.9839666"><time>2022-05-10T07:23:47.977</time></trkpt><trkpt lat="55.8271128" lon="48.9839483"><time>2022-05-10T07:23:49.977</time></trkpt><trkpt lat="55.8271650" lon="48.9839272"><time>2022-05-10T07:23:51.977</time></trkpt><trkpt lat="55.8272302" lon="48.9838834"><time>2022-05-10T07:23:54.980</time></trkpt><trkpt lat="55.8272807" lon="48.9838447"><time>2022-05-10T07:23:56.980</time></trkpt><trkpt lat="55.8273290" lon="48.9838294"><time>2022-05-10T07:23:58.980</time></trkpt><trkpt lat="55.8273784" lon="48.9838193"><time>2022-05-10T07:24:00.987</time></trkpt><trkpt lat="55.8274464" lon="48.9838033"><time>2022-05-10T07:24:03.977</time></trkpt><trkpt lat="55.8275009" lon="48.9837810"><time>2022-05-10T07:24:05.997</time></trkpt><trkpt lat="55.8275505" lon="48.9837637"><time>2022-05-10T07:24:07.980</time></trkpt><trkpt lat="55.8275978" lon="48.9837430"><time>2022-05-10T07:24:09.977</time></trkpt><trkpt lat="55.8276423" lon="48.9837162"><time>2022-05-10T07:24:12.033</time></trkpt><trkpt lat="55.8276855" lon="48.9836930"><time>2022-05-10T07:24:13.980</time></trkpt><trkpt lat="55.8277443" lon="48.9836578"><time>2022-05-10T07:24:16.990</time></trkpt><trkpt lat="55.8278037" lon="48.9836205"><time>2022-05-10T07:24:19.983</time></trkpt><trkpt lat="55.8278469" lon="48.9835832"><time>2022-05-10T07:24:21.997</time></trkpt><trkpt lat="55.8278960" lon="48.9835611"><time>2022-05-10T07:24:23.983</time></trkpt><trkpt lat="55.8279468" lon="48.9835528"><time>2022-05-10T07:24:25.980</time></trkpt><trkpt lat="55.8280033" lon="48.9835226"><time>2022-05-10T07:24:27.977</time></trkpt><trkpt lat="55.8280635" lon="48.9834792"><time>2022-05-10T07:24:29.977</time></trkpt><trkpt lat="55.8281252" lon="48.9834449"><time>2022-05-10T07:24:31.977</time></trkpt><trkpt lat="55.8281843" lon="48.9834251"><time>2022-05-10T07:24:33.977</time></trkpt><trkpt lat="55.8282417" lon="48.9834067"><time>2022-05-10T07:24:35.977</time></trkpt><trkpt lat="55.8283006" lon="48.9833871"><time>2022-05-10T07:24:37.977</time></trkpt><trkpt lat="55.8283587" lon="48.9833566"><time>2022-05-10T07:24:39.980</time></trkpt><trkpt lat="55.8284129" lon="48.9833283"><time>2022-05-10T07:24:41.977</time></trkpt><trkpt lat="55.8284621" lon="48.9833073"><time>2022-05-10T07:24:43.977</time></trkpt><trkpt lat="55.8285234" lon="48.9832718"><time>2022-05-10T07:24:47.050</time></trkpt><trkpt lat="55.8285836" lon="48.9832425"><time>2022-05-10T07:24:49.977</time></trkpt><trkpt lat="55.8286386" lon="48.9832120"><time>2022-05-10T07:24:51.963</time></trkpt><trkpt lat="55.8286830" lon="48.9831790"><time>2022-05-10T07:24:57.963</time></trkpt><trkpt lat="55.8287491" lon="48.9831485"><time>2022-05-10T07:24:59.993</time></trkpt><trkpt lat="55.8288086" lon="48.9831066"><time>2022-05-10T07:25:02.977</time></trkpt><trkpt lat="55.8288531" lon="48.9830713"><time>2022-05-10T07:25:04.977</time></trkpt><trkpt lat="55.8289143" lon="48.9830417"><time>2022-05-10T07:25:07.980</time></trkpt><trkpt lat="55.8289753" lon="48.9830062"><time>2022-05-10T07:25:10.973</time></trkpt><trkpt lat="55.8290327" lon="48.9829864"><time>2022-05-10T07:25:12.980</time></trkpt><trkpt lat="55.8290835" lon="48.9829703"><time>2022-05-10T07:25:14.983</time></trkpt><trkpt lat="55.8291268" lon="48.9829344"><time>2022-05-10T07:25:16.993</time></trkpt><trkpt lat="55.8291717" lon="48.9829072"><time>2022-05-10T07:25:18.977</time></trkpt><trkpt lat="55.8292310" lon="48.9829086"><time>2022-05-10T07:25:20.987</time></trkpt><trkpt lat="55.8292888" lon="48.9829291"><time>2022-05-10T07:25:23.980</time></trkpt><trkpt lat="55.8293508" lon="48.9829446"><time>2022-05-10T07:25:25.970</time></trkpt><trkpt lat="55.8294090" lon="48.9829452"><time>2022-05-10T07:25:27.977</time></trkpt><trkpt lat="55.8294770" lon="48.9829242"><time>2022-05-10T07:25:29.980</time></trkpt><trkpt lat="55.8295211" lon="48.9829034"><time>2022-05-10T07:25:31.980</time></trkpt><trkpt lat="55.8295803" lon="48.9828728"><time>2022-05-10T07:25:34.980</time></trkpt><trkpt lat="55.8296258" lon="48.9828471"><time>2022-05-10T07:25:36.983</time></trkpt><trkpt lat="55.8296845" lon="48.9828038"><time>2022-05-10T07:25:39.980</time></trkpt><trkpt lat="55.8297509" lon="48.9827619"><time>2022-05-10T07:25:42.980</time></trkpt><trkpt lat="55.8297945" lon="48.9827276"><time>2022-05-10T07:25:45.050</time></trkpt><trkpt lat="55.8298386" lon="48.9826905"><time>2022-05-10T07:25:47</time></trkpt><trkpt lat="55.8298816" lon="48.9826642"><time>2022-05-10T07:25:48.983</time></trkpt><trkpt lat="55.8299519" lon="48.9826338"><time>2022-05-10T07:25:51.980</time></trkpt><trkpt lat="55.8300015" lon="48.9826049"><time>2022-05-10T07:25:53.980</time></trkpt><trkpt lat="55.8300509" lon="48.9825741"><time>2022-05-10T07:25:55.993</time></trkpt><trkpt lat="55.8300964" lon="48.9825456"><time>2022-05-10T07:25:57.993</time></trkpt><trkpt lat="55.8301410" lon="48.9825166"><time>2022-05-10T07:25:59.980</time></trkpt><trkpt lat="55.8301857" lon="48.9824855"><time>2022-05-10T07:26:01.993</time></trkpt><trkpt lat="55.8302283" lon="48.9824493"><time>2022-05-10T07:26:03.957</time></trkpt><trkpt lat="55.8302792" lon="48.9824270"><time>2022-05-10T07:26:05.990</time></trkpt><trkpt lat="55.8303302" lon="48.9824030"><time>2022-05-10T07:26:09.037</time></trkpt><trkpt lat="55.8303788" lon="48.9823860"><time>2022-05-10T07:26:10.980</time></trkpt><trkpt lat="55.8304362" lon="48.9823546"><time>2022-05-10T07:26:13.990</time></trkpt><trkpt lat="55.8305008" lon="48.9823252"><time>2022-05-10T07:26:16.980</time></trkpt><trkpt lat="55.8305708" lon="48.9823075"><time>2022-05-10T07:26:18.980</time></trkpt><trkpt lat="55.8306224" lon="48.9822762"><time>2022-05-10T07:26:21.993</time></trkpt><trkpt lat="55.8306727" lon="48.9822499"><time>2022-05-10T07:26:23.993</time></trkpt><trkpt lat="55.8307256" lon="48.9822274"><time>2022-05-10T07:26:25.980</time></trkpt><trkpt lat="55.8307734" lon="48.9822056"><time>2022-05-10T07:26:27.993</time></trkpt><trkpt lat="55.8308287" lon="48.9821613"><time>2022-05-10T07:26:30.980</time></trkpt><trkpt lat="55.8308797" lon="48.9821363"><time>2022-05-10T07:26:32.983</time></trkpt><trkpt lat="55.8309323" lon="48.9821213"><time>2022-05-10T07:26:34.980</time></trkpt><trkpt lat="55.8309860" lon="48.9821014"><time>2022-05-10T07:26:36.990</time></trkpt><trkpt lat="55.8310344" lon="48.9820857"><time>2022-05-10T07:26:38.980</time></trkpt><trkpt lat="55.8310926" lon="48.9820673"><time>2022-05-10T07:26:40.980</time></trkpt><trkpt lat="55.8311526" lon="48.9820424"><time>2022-05-10T07:26:43.003</time></trkpt><trkpt lat="55.8312135" lon="48.9820176"><time>2022-05-10T07:26:44.983</time></trkpt><trkpt lat="55.8312687" lon="48.9819951"><time>2022-05-10T07:26:46.980</time></trkpt><trkpt lat="55.8313262" lon="48.9819829"><time>2022-05-10T07:26:48.977</time></trkpt><trkpt lat="55.8313831" lon="48.9819653"><time>2022-05-10T07:26:50.973</time></trkpt><trkpt lat="55.8314367" lon="48.9819476"><time>2022-05-10T07:26:52.977</time></trkpt><trkpt lat="55.8314951" lon="48.9819322"><time>2022-05-10T07:26:55.003</time></trkpt><trkpt lat="55.8315582" lon="48.9819186"><time>2022-05-10T07:26:56.983</time></trkpt><trkpt lat="55.8316208" lon="48.9819031"><time>2022-05-10T07:26:58.997</time></trkpt><trkpt lat="55.8316499" lon="48.9818969"><time>2022-05-10T07:26:59.970</time></trkpt><trkpt lat="55.8317081" lon="48.9818854"><time>2022-05-10T07:27:01.977</time></trkpt><trkpt lat="55.8317600" lon="48.9818700"><time>2022-05-10T07:27:03.957</time></trkpt><trkpt lat="55.8318146" lon="48.9818585"><time>2022-05-10T07:27:05.977</time></trkpt><trkpt lat="55.8318802" lon="48.9818538"><time>2022-05-10T07:27:08.977</time></trkpt><trkpt lat="55.8319255" lon="48.9817813"><time>2022-05-10T07:27:11.977</time></trkpt><trkpt lat="55.8319400" lon="48.9817035"><time>2022-05-10T07:27:13.970</time></trkpt><trkpt lat="55.8319459" lon="48.9816230"><time>2022-05-10T07:27:15.977</time></trkpt><trkpt lat="55.8319609" lon="48.9815097"><time>2022-05-10T07:27:18.967</time></trkpt><trkpt lat="55.8319673" lon="48.9814245"><time>2022-05-10T07:27:20.977</time></trkpt><trkpt lat="55.8319721" lon="48.9813376"><time>2022-05-10T07:27:22.977</time></trkpt><trkpt lat="55.8319693" lon="48.9812565"><time>2022-05-10T07:27:24.987</time></trkpt><trkpt lat="55.8319629" lon="48.9811328"><time>2022-05-10T07:27:27.963</time></trkpt><trkpt lat="55.8319596" lon="48.9810245"><time>2022-05-10T07:27:30.040</time></trkpt><trkpt lat="55.8319579" lon="48.9809136"><time>2022-05-10T07:27:31.970</time></trkpt><trkpt lat="55.8319535" lon="48.9807947"><time>2022-05-10T07:27:33.973</time></trkpt><trkpt lat="55.8319614" lon="48.9806819"><time>2022-05-10T07:27:35.967</time></trkpt><trkpt lat="55.8319708" lon="48.9805933"><time>2022-05-10T07:27:37.973</time></trkpt><trkpt lat="55.8319689" lon="48.9804837"><time>2022-05-10T07:27:39.993</time></trkpt><trkpt lat="55.8319573" lon="48.9803727"><time>2022-05-10T07:27:42.030</time></trkpt><trkpt lat="55.8319547" lon="48.9802612"><time>2022-05-10T07:27:44.993</time></trkpt><trkpt lat="55.8319539" lon="48.9802256"><time>2022-05-10T07:27:45.980</time></trkpt><trkpt lat="55.8319510" lon="48.9801459"><time>2022-05-10T07:27:48.017</time></trkpt><trkpt lat="55.8319448" lon="48.9800438"><time>2022-05-10T07:27:49.977</time></trkpt><trkpt lat="55.8319320" lon="48.9799375"><time>2022-05-10T07:27:51.990</time></trkpt><trkpt lat="55.8319263" lon="48.9798388"><time>2022-05-10T07:27:54.020</time></trkpt><trkpt lat="55.8319192" lon="48.9797401"><time>2022-05-10T07:27:55.977</time></trkpt><trkpt lat="55.8319063" lon="48.9796408"><time>2022-05-10T07:27:57.990</time></trkpt><trkpt lat="55.8318974" lon="48.9795459"><time>2022-05-10T07:28:00.053</time></trkpt><trkpt lat="55.8318921" lon="48.9794932"><time>2022-05-10T07:28:00.963</time></trkpt><trkpt lat="55.8318781" lon="48.9794067"><time>2022-05-10T07:28:02.973</time></trkpt><trkpt lat="55.8318633" lon="48.9793217"><time>2022-05-10T07:28:04.980</time></trkpt><trkpt lat="55.8318584" lon="48.9792313"><time>2022-05-10T07:28:06.990</time></trkpt><trkpt lat="55.8318584" lon="48.9792313"><time>2022-05-10T07:28:07.037</time></trkpt><trkpt lat="55.8318628" lon="48.9791436"><time>2022-05-10T07:28:08.987</time></trkpt><trkpt lat="55.8318654" lon="48.9790980"><time>2022-05-10T07:28:09.980</time></trkpt><trkpt lat="55.8318685" lon="48.9790087"><time>2022-05-10T07:28:11.977</time></trkpt><trkpt lat="55.8318689" lon="48.9789167"><time>2022-05-10T07:28:13.973</time></trkpt><trkpt lat="55.8318635" lon="48.9788229"><time>2022-05-10T07:28:15.977</time></trkpt><trkpt lat="55.8318569" lon="48.9787232"><time>2022-05-10T07:28:17.970</time></trkpt><trkpt lat="55.8318435" lon="48.9786292"><time>2022-05-10T07:28:19.977</time></trkpt><trkpt lat="55.8318220" lon="48.9785495"><time>2022-05-10T07:28:21.987</time></trkpt><trkpt lat="55.8317984" lon="48.9784753"><time>2022-05-10T07:28:23.970</time></trkpt><trkpt lat="55.8317776" lon="48.9783597"><time>2022-05-10T07:28:26.977</time></trkpt><trkpt lat="55.8317668" lon="48.9782756"><time>2022-05-10T07:28:29.030</time></trkpt><trkpt lat="55.8317546" lon="48.9781883"><time>2022-05-10T07:28:30.977</time></trkpt><trkpt lat="55.8317492" lon="48.9780991"><time>2022-05-10T07:28:32.980</time></trkpt><trkpt lat="55.8317524" lon="48.9780104"><time>2022-05-10T07:28:35.080</time></trkpt><trkpt lat="55.8317672" lon="48.9779018"><time>2022-05-10T07:28:37.990</time></trkpt><trkpt lat="55.8317701" lon="48.9777891"><time>2022-05-10T07:28:41.023</time></trkpt><trkpt lat="55.8317692" lon="48.9777056"><time>2022-05-10T07:28:42.977</time></trkpt><trkpt lat="55.8317725" lon="48.9776138"><time>2022-05-10T07:28:44.977</time></trkpt><trkpt lat="55.8317722" lon="48.9775193"><time>2022-05-10T07:28:47.017</time></trkpt><trkpt lat="55.8317639" lon="48.9774286"><time>2022-05-10T07:28:48.977</time></trkpt><trkpt lat="55.8317579" lon="48.9773354"><time>2022-05-10T07:28:50.980</time></trkpt><trkpt lat="55.8317527" lon="48.9772441"><time>2022-05-10T07:28:53.037</time></trkpt><trkpt lat="55.8317458" lon="48.9771543"><time>2022-05-10T07:28:54.977</time></trkpt><trkpt lat="55.8317359" lon="48.9770643"><time>2022-05-10T07:28:56.980</time></trkpt><trkpt lat="55.8317284" lon="48.9769729"><time>2022-05-10T07:28:59.023</time></trkpt><trkpt lat="55.8317208" lon="48.9768800"><time>2022-05-10T07:29:00.990</time></trkpt><trkpt lat="55.8317025" lon="48.9767943"><time>2022-05-10T07:29:02.977</time></trkpt><trkpt lat="55.8316841" lon="48.9767022"><time>2022-05-10T07:29:04.980</time></trkpt><trkpt lat="55.8316673" lon="48.9766147"><time>2022-05-10T07:29:06.977</time></trkpt><trkpt lat="55.8316513" lon="48.9765359"><time>2022-05-10T07:29:08.980</time></trkpt><trkpt lat="55.8316356" lon="48.9764537"><time>2022-05-10T07:29:10.980</time></trkpt><trkpt lat="55.8316263" lon="48.9763662"><time>2022-05-10T07:29:12.980</time></trkpt><trkpt lat="55.8316236" lon="48.9762560"><time>2022-05-10T07:29:16.043</time></trkpt><trkpt lat="55.8316144" lon="48.9761746"><time>2022-05-10T07:29:17.977</time></trkpt><trkpt lat="55.8316034" lon="48.9760923"><time>2022-05-10T07:29:20.990</time></trkpt><trkpt lat="55.8316007" lon="48.9759873"><time>2022-05-10T07:29:23.993</time></trkpt><trkpt lat="55.8315925" lon="48.9758871"><time>2022-05-10T07:29:25.977</time></trkpt><trkpt lat="55.8315884" lon="48.9757834"><time>2022-05-10T07:29:28.017</time></trkpt><trkpt lat="55.8315885" lon="48.9756678"><time>2022-05-10T07:29:29.977</time></trkpt><trkpt lat="55.8315879" lon="48.9755402"><time>2022-05-10T07:29:31.970</time></trkpt><trkpt lat="55.8315817" lon="48.9754072"><time>2022-05-10T07:29:34.040</time></trkpt><trkpt lat="55.8315680" lon="48.9753141"><time>2022-05-10T07:29:35.977</time></trkpt><trkpt lat="55.8315542" lon="48.9752353"><time>2022-05-10T07:29:37.980</time></trkpt><trkpt lat="55.8315379" lon="48.9751534"><time>2022-05-10T07:29:40.063</time></trkpt><trkpt lat="55.8315075" lon="48.9750435"><time>2022-05-10T07:29:42.977</time></trkpt><trkpt lat="55.8314812" lon="48.9749449"><time>2022-05-10T07:29:44.973</time></trkpt><trkpt lat="55.8314688" lon="48.9748410"><time>2022-05-10T07:29:46.977</time></trkpt><trkpt lat="55.8314540" lon="48.9747350"><time>2022-05-10T07:29:48.980</time></trkpt><trkpt lat="55.8314404" lon="48.9746286"><time>2022-05-10T07:29:50.990</time></trkpt><trkpt lat="55.8314385" lon="48.9745457"><time>2022-05-10T07:29:52.987</time></trkpt><trkpt lat="55.8314323" lon="48.9744553"><time>2022-05-10T07:29:54.990</time></trkpt><trkpt lat="55.8314194" lon="48.9743632"><time>2022-05-10T07:29:56.977</time></trkpt><trkpt lat="55.8314145" lon="48.9742619"><time>2022-05-10T07:29:58.980</time></trkpt><trkpt lat="55.8314084" lon="48.9741626"><time>2022-05-10T07:30:00.980</time></trkpt><trkpt lat="55.8314102" lon="48.9740394"><time>2022-05-10T07:30:04.037</time></trkpt><trkpt lat="55.8314083" lon="48.9739465"><time>2022-05-10T07:30:05.977</time></trkpt><trkpt lat="55.8314094" lon="48.9738568"><time>2022-05-10T07:30:07.977</time></trkpt><trkpt lat="55.8314146" lon="48.9737690"><time>2022-05-10T07:30:10.060</time></trkpt><trkpt lat="55.8314054" lon="48.9736761"><time>2022-05-10T07:30:11.977</time></trkpt><trkpt lat="55.8313861" lon="48.9735808"><time>2022-05-10T07:30:13.977</time></trkpt><trkpt lat="55.8313800" lon="48.9734886"><time>2022-05-10T07:30:16.047</time></trkpt><trkpt lat="55.8313752" lon="48.9733823"><time>2022-05-10T07:30:18.990</time></trkpt><trkpt lat="55.8313700" lon="48.9732947"><time>2022-05-10T07:30:22.993</time></trkpt><trkpt lat="55.8313628" lon="48.9731989"><time>2022-05-10T07:30:24.997</time></trkpt><trkpt lat="55.8313476" lon="48.9730869"><time>2022-05-10T07:30:26.980</time></trkpt><trkpt lat="55.8313371" lon="48.9729552"><time>2022-05-10T07:30:28.980</time></trkpt><trkpt lat="55.8313333" lon="48.9728477"><time>2022-05-10T07:30:31.993</time></trkpt><trkpt lat="55.8313178" lon="48.9727303"><time>2022-05-10T07:30:34.980</time></trkpt><trkpt lat="55.8313074" lon="48.9726324"><time>2022-05-10T07:30:36.987</time></trkpt><trkpt lat="55.8312964" lon="48.9725298"><time>2022-05-10T07:30:39.057</time></trkpt><trkpt lat="55.8312863" lon="48.9724198"><time>2022-05-10T07:30:41.977</time></trkpt><trkpt lat="55.8312813" lon="48.9723045"><time>2022-05-10T07:30:45.043</time></trkpt><trkpt lat="55.8312726" lon="48.9721968"><time>2022-05-10T07:30:47.990</time></trkpt><trkpt lat="55.8312642" lon="48.9720725"><time>2022-05-10T07:30:51.053</time></trkpt><trkpt lat="55.8312593" lon="48.9719841"><time>2022-05-10T07:30:52.983</time></trkpt><trkpt lat="55.8312506" lon="48.9718800"><time>2022-05-10T07:30:54.970</time></trkpt><trkpt lat="55.8312380" lon="48.9717711"><time>2022-05-10T07:30:57.023</time></trkpt><trkpt lat="55.8312277" lon="48.9716707"><time>2022-05-10T07:30:58.980</time></trkpt><trkpt lat="55.8312134" lon="48.9715726"><time>2022-05-10T07:31:01.960</time></trkpt><trkpt lat="55.8311953" lon="48.9714704"><time>2022-05-10T07:31:03.990</time></trkpt><trkpt lat="55.8311768" lon="48.9713646"><time>2022-05-10T07:31:05.977</time></trkpt><trkpt lat="55.8311636" lon="48.9712585"><time>2022-05-10T07:31:07.977</time></trkpt><trkpt lat="55.8311545" lon="48.9711457"><time>2022-05-10T07:31:09.977</time></trkpt><trkpt lat="55.8311482" lon="48.9710331"><time>2022-05-10T07:31:11.990</time></trkpt><trkpt lat="55.8311548" lon="48.9709219"><time>2022-05-10T07:31:14.047</time></trkpt><trkpt lat="55.8311630" lon="48.9708145"><time>2022-05-10T07:31:15.977</time></trkpt><trkpt lat="55.8311508" lon="48.9707028"><time>2022-05-10T07:31:17.977</time></trkpt><trkpt lat="55.8311359" lon="48.9706230"><time>2022-05-10T07:31:20.027</time></trkpt><trkpt lat="55.8311228" lon="48.9705442"><time>2022-05-10T07:31:21.980</time></trkpt><trkpt lat="55.8311101" lon="48.9704584"><time>2022-05-10T07:31:23.977</time></trkpt><trkpt lat="55.8311048" lon="48.9703683"><time>2022-05-10T07:31:26.070</time></trkpt><trkpt lat="55.8311049" lon="48.9702746"><time>2022-05-10T07:31:27.980</time></trkpt><trkpt lat="55.8310997" lon="48.9701782"><time>2022-05-10T07:31:29.960</time></trkpt><trkpt lat="55.8310970" lon="48.9700802"><time>2022-05-10T07:31:32.960</time></trkpt><trkpt lat="55.8310574" lon="48.9699821"><time>2022-05-10T07:31:35.977</time></trkpt><trkpt lat="55.8310414" lon="48.9699012"><time>2022-05-10T07:31:38.037</time></trkpt><trkpt lat="55.8310386" lon="48.9698098"><time>2022-05-10T07:31:39.980</time></trkpt><trkpt lat="55.8310328" lon="48.9697230"><time>2022-05-10T07:31:41.987</time></trkpt><trkpt lat="55.8310236" lon="48.9696236"><time>2022-05-10T07:31:44.053</time></trkpt><trkpt lat="55.8310129" lon="48.9695264"><time>2022-05-10T07:31:45.977</time></trkpt><trkpt lat="55.8310052" lon="48.9694379"><time>2022-05-10T07:31:47.977</time></trkpt><trkpt lat="55.8310023" lon="48.9693269"><time>2022-05-10T07:31:50.980</time></trkpt><trkpt lat="55.8309938" lon="48.9692213"><time>2022-05-10T07:31:53.977</time></trkpt><trkpt lat="55.8309848" lon="48.9691023"><time>2022-05-10T07:31:56.983</time></trkpt><trkpt lat="55.8309761" lon="48.9690165"><time>2022-05-10T07:31:58.977</time></trkpt><trkpt lat="55.8309653" lon="48.9689376"><time>2022-05-10T07:32:00.990</time></trkpt><trkpt lat="55.8309516" lon="48.9688574"><time>2022-05-10T07:32:02.993</time></trkpt><trkpt lat="55.8309444" lon="48.9687737"><time>2022-05-10T07:32:04.983</time></trkpt><trkpt lat="55.8309391" lon="48.9686936"><time>2022-05-10T07:32:06.973</time></trkpt><trkpt lat="55.8309327" lon="48.9686069"><time>2022-05-10T07:32:08.980</time></trkpt><trkpt lat="55.8309289" lon="48.9685183"><time>2022-05-10T07:32:10.980</time></trkpt><trkpt lat="55.8309218" lon="48.9684133"><time>2022-05-10T07:32:12.980</time></trkpt><trkpt lat="55.8309075" lon="48.9683272"><time>2022-05-10T07:32:15.980</time></trkpt><trkpt lat="55.8308971" lon="48.9682148"><time>2022-05-10T07:32:18.960</time></trkpt><trkpt lat="55.8308935" lon="48.9681347"><time>2022-05-10T07:32:20.977</time></trkpt><trkpt lat="55.8308844" lon="48.9680486"><time>2022-05-10T07:32:22.980</time></trkpt><trkpt lat="55.8308718" lon="48.9679453"><time>2022-05-10T07:32:26.023</time></trkpt><trkpt lat="55.8308460" lon="48.9678343"><time>2022-05-10T07:32:28.980</time></trkpt><trkpt lat="55.8308336" lon="48.9677575"><time>2022-05-10T07:32:30.980</time></trkpt><trkpt lat="55.8308346" lon="48.9676686"><time>2022-05-10T07:32:32.960</time></trkpt><trkpt lat="55.8308380" lon="48.9675873"><time>2022-05-10T07:32:34.980</time></trkpt><trkpt lat="55.8308322" lon="48.9675019"><time>2022-05-10T07:32:36.987</time></trkpt><trkpt lat="55.8308184" lon="48.9674062"><time>2022-05-10T07:32:40</time></trkpt><trkpt lat="55.8308104" lon="48.9673162"><time>2022-05-10T07:32:41.997</time></trkpt><trkpt lat="55.8308027" lon="48.9672140"><time>2022-05-10T07:32:44.047</time></trkpt><trkpt lat="55.8307953" lon="48.9671034"><time>2022-05-10T07:32:46.003</time></trkpt><trkpt lat="55.8307809" lon="48.9669948"><time>2022-05-10T07:32:47.980</time></trkpt><trkpt lat="55.8307709" lon="48.9668882"><time>2022-05-10T07:32:50.017</time></trkpt><trkpt lat="55.8307651" lon="48.9667908"><time>2022-05-10T07:32:51.997</time></trkpt><trkpt lat="55.8307605" lon="48.9666922"><time>2022-05-10T07:32:53.997</time></trkpt><trkpt lat="55.8307514" lon="48.9665998"><time>2022-05-10T07:32:56.037</time></trkpt><trkpt lat="55.8307422" lon="48.9665070"><time>2022-05-10T07:32:57.993</time></trkpt><trkpt lat="55.8307322" lon="48.9664150"><time>2022-05-10T07:32:59.977</time></trkpt><trkpt lat="55.8307302" lon="48.9663319"><time>2022-05-10T07:33:02.057</time></trkpt><trkpt lat="55.8307211" lon="48.9662250"><time>2022-05-10T07:33:03.987</time></trkpt><trkpt lat="55.8307108" lon="48.9661440"><time>2022-05-10T07:33:05.987</time></trkpt><trkpt lat="55.8307039" lon="48.9660545"><time>2022-05-10T07:33:08.043</time></trkpt><trkpt lat="55.8306994" lon="48.9659484"><time>2022-05-10T07:33:09.980</time></trkpt><trkpt lat="55.8306926" lon="48.9658431"><time>2022-05-10T07:33:11.980</time></trkpt><trkpt lat="55.8306829" lon="48.9657338"><time>2022-05-10T07:33:14.040</time></trkpt><trkpt lat="55.8306696" lon="48.9656191"><time>2022-05-10T07:33:15.980</time></trkpt><trkpt lat="55.8306590" lon="48.9654922"><time>2022-05-10T07:33:17.983</time></trkpt><trkpt lat="55.8306472" lon="48.9653613"><time>2022-05-10T07:33:20.047</time></trkpt><trkpt lat="55.8306351" lon="48.9652264"><time>2022-05-10T07:33:21.980</time></trkpt><trkpt lat="55.8306262" lon="48.9650983"><time>2022-05-10T07:33:24</time></trkpt><trkpt lat="55.8306149" lon="48.9649888"><time>2022-05-10T07:33:26.023</time></trkpt><trkpt lat="55.8306046" lon="48.9648888"><time>2022-05-10T07:33:27.980</time></trkpt><trkpt lat="55.8305935" lon="48.9647842"><time>2022-05-10T07:33:29.983</time></trkpt><trkpt lat="55.8305720" lon="48.9646925"><time>2022-05-10T07:33:31.983</time></trkpt><trkpt lat="55.8305427" lon="48.9645954"><time>2022-05-10T07:33:33.990</time></trkpt><trkpt lat="55.8305239" lon="48.9644983"><time>2022-05-10T07:33:35.987</time></trkpt><trkpt lat="55.8305133" lon="48.9643946"><time>2022-05-10T07:33:37.980</time></trkpt><trkpt lat="55.8304949" lon="48.9643049"><time>2022-05-10T07:33:40.983</time></trkpt><trkpt lat="55.8304694" lon="48.9641994"><time>2022-05-10T07:33:43.997</time></trkpt><trkpt lat="55.8304615" lon="48.9641194"><time>2022-05-10T07:33:45.977</time></trkpt><trkpt lat="55.8304606" lon="48.9640184"><time>2022-05-10T07:33:48.010</time></trkpt><trkpt lat="55.8304641" lon="48.9639308"><time>2022-05-10T07:33:49.980</time></trkpt><trkpt lat="55.8304630" lon="48.9638436"><time>2022-05-10T07:33:51.977</time></trkpt><trkpt lat="55.8304549" lon="48.9637640"><time>2022-05-10T07:33:53.980</time></trkpt><trkpt lat="55.8304499" lon="48.9636838"><time>2022-05-10T07:33:55.987</time></trkpt><trkpt lat="55.8304592" lon="48.9635650"><time>2022-05-10T07:33:58.980</time></trkpt><trkpt lat="55.8304549" lon="48.9634792"><time>2022-05-10T07:34:01.053</time></trkpt><trkpt lat="55.8304436" lon="48.9634002"><time>2022-05-10T07:34:02.977</time></trkpt><trkpt lat="55.8304319" lon="48.9632860"><time>2022-05-10T07:34:05.997</time></trkpt><trkpt lat="55.8304352" lon="48.9631679"><time>2022-05-10T07:34:08.977</time></trkpt><trkpt lat="55.8304461" lon="48.9630591"><time>2022-05-10T07:34:11.977</time></trkpt><trkpt lat="55.8304447" lon="48.9629697"><time>2022-05-10T07:34:13.980</time></trkpt><trkpt lat="55.8304370" lon="48.9628513"><time>2022-05-10T07:34:16.983</time></trkpt><trkpt lat="55.8304290" lon="48.9627564"><time>2022-05-10T07:34:19.967</time></trkpt><trkpt lat="55.8304116" lon="48.9626384"><time>2022-05-10T07:34:23</time></trkpt><trkpt lat="55.8303983" lon="48.9625460"><time>2022-05-10T07:34:25.023</time></trkpt><trkpt lat="55.8303892" lon="48.9624379"><time>2022-05-10T07:34:26.967</time></trkpt><trkpt lat="55.8303862" lon="48.9623415"><time>2022-05-10T07:34:28.967</time></trkpt><trkpt lat="55.8303818" lon="48.9622316"><time>2022-05-10T07:34:31.967</time></trkpt><trkpt lat="55.8303735" lon="48.9621465"><time>2022-05-10T07:34:33.997</time></trkpt><trkpt lat="55.8303661" lon="48.9620525"><time>2022-05-10T07:34:36.043</time></trkpt><trkpt lat="55.8303574" lon="48.9619740"><time>2022-05-10T07:34:37.983</time></trkpt><trkpt lat="55.8303480" lon="48.9618924"><time>2022-05-10T07:34:39.980</time></trkpt><trkpt lat="55.8303409" lon="48.9618125"><time>2022-05-10T07:34:42.057</time></trkpt><trkpt lat="55.8303322" lon="48.9616916"><time>2022-05-10T07:34:44.970</time></trkpt><trkpt lat="55.8303256" lon="48.9615915"><time>2022-05-10T07:34:46.983</time></trkpt><trkpt lat="55.8303168" lon="48.9614967"><time>2022-05-10T07:34:48.970</time></trkpt><trkpt lat="55.8303102" lon="48.9614172"><time>2022-05-10T07:34:50.997</time></trkpt><trkpt lat="55.8303042" lon="48.9613332"><time>2022-05-10T07:34:52.983</time></trkpt><trkpt lat="55.8302974" lon="48.9612495"><time>2022-05-10T07:34:54.993</time></trkpt><trkpt lat="55.8302924" lon="48.9611555"><time>2022-05-10T07:34:56.983</time></trkpt><trkpt lat="55.8302833" lon="48.9610661"><time>2022-05-10T07:34:58.977</time></trkpt><trkpt lat="55.8302775" lon="48.9609844"><time>2022-05-10T07:35:01.013</time></trkpt><trkpt lat="55.8302764" lon="48.9609415"><time>2022-05-10T07:35:01.967</time></trkpt><trkpt lat="55.8302751" lon="48.9608605"><time>2022-05-10T07:35:03.963</time></trkpt><trkpt lat="55.8302622" lon="48.9607514"><time>2022-05-10T07:35:06.990</time></trkpt><trkpt lat="55.8302494" lon="48.9606457"><time>2022-05-10T07:35:09.967</time></trkpt><trkpt lat="55.8302365" lon="48.9605516"><time>2022-05-10T07:35:11.990</time></trkpt><trkpt lat="55.8302295" lon="48.9604518"><time>2022-05-10T07:35:13.973</time></trkpt><trkpt lat="55.8302215" lon="48.9603332"><time>2022-05-10T07:35:17.050</time></trkpt><trkpt lat="55.8302100" lon="48.9602202"><time>2022-05-10T07:35:19.977</time></trkpt><trkpt lat="55.8302003" lon="48.9601372"><time>2022-05-10T07:35:21.993</time></trkpt><trkpt lat="55.8301843" lon="48.9600609"><time>2022-05-10T07:35:23.980</time></trkpt><trkpt lat="55.8301700" lon="48.9599808"><time>2022-05-10T07:35:25.993</time></trkpt><trkpt lat="55.8301687" lon="48.9598755"><time>2022-05-10T07:35:29.050</time></trkpt><trkpt lat="55.8301735" lon="48.9597856"><time>2022-05-10T07:35:30.970</time></trkpt><trkpt lat="55.8301667" lon="48.9596794"><time>2022-05-10T07:35:32.980</time></trkpt><trkpt lat="55.8301604" lon="48.9595870"><time>2022-05-10T07:35:35.060</time></trkpt><trkpt lat="55.8301650" lon="48.9595015"><time>2022-05-10T07:35:36.980</time></trkpt><trkpt lat="55.8301794" lon="48.9594043"><time>2022-05-10T07:35:39.987</time></trkpt><trkpt lat="55.8301769" lon="48.9592972"><time>2022-05-10T07:35:43.007</time></trkpt><trkpt lat="55.8301852" lon="48.9592552"><time>2022-05-10T07:35:43.977</time></trkpt><trkpt lat="55.8302028" lon="48.9591651"><time>2022-05-10T07:35:45.967</time></trkpt><trkpt lat="55.8302001" lon="48.9590739"><time>2022-05-10T07:35:47.993</time></trkpt><trkpt lat="55.8301921" lon="48.9589824"><time>2022-05-10T07:35:49.983</time></trkpt><trkpt lat="55.8301794" lon="48.9588855"><time>2022-05-10T07:35:51.987</time></trkpt><trkpt lat="55.8301712" lon="48.9587989"><time>2022-05-10T07:35:53.987</time></trkpt><trkpt lat="55.8301724" lon="48.9586836"><time>2022-05-10T07:35:56.990</time></trkpt><trkpt lat="55.8301750" lon="48.9586027"><time>2022-05-10T07:35:59.063</time></trkpt><trkpt lat="55.8301797" lon="48.9585164"><time>2022-05-10T07:36:00.987</time></trkpt><trkpt lat="55.8301807" lon="48.9584756"><time>2022-05-10T07:36:01.980</time></trkpt><trkpt lat="55.8301778" lon="48.9583751"><time>2022-05-10T07:36:03.993</time></trkpt><trkpt lat="55.8301637" lon="48.9582963"><time>2022-05-10T07:36:07.973</time></trkpt><trkpt lat="55.8301425" lon="48.9582245"><time>2022-05-10T07:36:13.970</time></trkpt></trkseg></trk></gpx>